createdAt,value
2023-03-20T00:02:02.078Z,10.10
2023-03-20T00:04:29.518Z,10.10
2023-03-20T00:06:57.294Z,10.00
2023-03-20T00:09:26.542Z,9.90
2023-03-20T00:11:56.152Z,9.80
2023-03-20T00:14:24.825Z,9.80
2023-03-20T00:16:53.132Z,9.70
2023-03-20T00:19:31.537Z,9.80
2023-03-20T00:21:58.882Z,9.80
2023-03-20T00:24:26.810Z,9.90
2023-03-20T00:26:55.790Z,10.00
2023-03-20T00:29:26.651Z,10.00
2023-03-20T00:31:54.934Z,10.10
2023-03-20T00:34:26.188Z,10.10
2023-03-20T00:36:54.029Z,9.90
2023-03-20T00:39:21.359Z,10.00
2023-03-20T00:41:52.208Z,10.00
2023-03-20T00:44:24.571Z,10.10
2023-03-20T00:46:55.962Z,10.10
2023-03-20T00:49:27.847Z,10.00
2023-03-20T00:51:55.634Z,10.10
2023-03-20T00:54:23.079Z,10.10
2023-03-20T00:56:59.381Z,10.10
2023-03-20T00:59:32.259Z,9.90
2023-03-20T01:02:01.010Z,9.90
2023-03-20T01:04:36.242Z,9.90
2023-03-20T01:07:06.565Z,9.90
2023-03-20T01:09:33.802Z,9.90
2023-03-20T01:12:01.518Z,9.80
2023-03-20T01:14:30.454Z,9.90
2023-03-20T01:16:58.084Z,9.90
2023-03-20T01:19:25.277Z,9.90
2023-03-20T01:21:52.272Z,10.00
2023-03-20T01:24:19.757Z,10.00
2023-03-20T01:26:46.942Z,9.90
2023-03-20T01:29:20.600Z,9.90
2023-03-20T01:31:49.688Z,9.90
2023-03-20T01:34:17.896Z,9.80
2023-03-20T01:36:49.333Z,9.90
2023-03-20T01:39:18.369Z,9.90
2023-03-20T01:41:45.473Z,9.80
2023-03-20T01:44:22.670Z,9.90
2023-03-20T01:46:53.403Z,9.90
2023-03-20T01:50:16.586Z,10.00
2023-03-20T01:52:44.135Z,10.00
2023-03-20T01:55:11.304Z,9.90
2023-03-20T01:57:39.453Z,9.90
2023-03-20T02:00:12.554Z,9.90
2023-03-20T02:02:42.735Z,10.00
2023-03-20T02:05:14.270Z,9.90
2023-03-20T02:07:41.673Z,10.00
2023-03-20T02:10:13.101Z,10.00
2023-03-20T02:12:41.337Z,10.10
2023-03-20T02:15:09.142Z,10.20
2023-03-20T02:17:36.622Z,10.00
2023-03-20T02:20:17.001Z,10.10
2023-03-20T02:23:32.413Z,10.00
2023-03-20T02:26:30.480Z,10.10
2023-03-20T02:29:45.912Z,10.00
2023-03-20T02:33:06.147Z,10.10
2023-03-20T02:36:15.579Z,10.10
2023-03-20T02:39:16.426Z,10.20
2023-03-20T02:44:45.827Z,10.20
2023-03-20T02:47:21.793Z,10.20
2023-03-20T02:49:57.247Z,10.10
2023-03-20T02:52:34.121Z,10.00
2023-03-20T02:55:16.158Z,10.00
2023-03-20T02:57:52.730Z,9.90
2023-03-20T03:00:28.997Z,10.00
2023-03-20T03:03:06.588Z,10.00
2023-03-20T03:05:40.895Z,10.00
2023-03-20T03:08:11.527Z,10.10
2023-03-20T03:10:45.317Z,10.10
2023-03-20T03:13:18.318Z,10.20
2023-03-20T03:15:49.549Z,10.10
2023-03-20T03:18:21.497Z,10.10
2023-03-20T03:20:55.071Z,10.20
2023-03-20T03:23:27.914Z,10.20
2023-03-20T03:26:01.471Z,10.10
2023-03-20T03:28:37.709Z,10.30
2023-03-20T03:31:08.073Z,10.20
2023-03-20T03:33:38.448Z,10.20
2023-03-20T03:36:14.512Z,10.30
2023-03-20T03:38:50.266Z,10.30
2023-03-20T03:41:29.838Z,10.20
2023-03-20T03:44:07.681Z,10.20
2023-03-20T03:46:44.629Z,10.30
2023-03-20T03:49:16.971Z,10.30
2023-03-20T03:51:48.017Z,10.30
2023-03-20T03:54:19.181Z,10.30
2023-03-20T03:56:50.541Z,10.40
2023-03-20T03:59:23.670Z,10.30
2023-03-20T04:01:52.510Z,10.40
2023-03-20T04:04:22.377Z,10.40
2023-03-20T04:06:50.029Z,10.30
2023-03-20T04:09:16.970Z,10.30
2023-03-20T04:11:49.249Z,10.30
2023-03-20T04:14:16.177Z,10.30
2023-03-20T04:16:43.747Z,10.40
2023-03-20T04:19:10.761Z,10.50
2023-03-20T04:21:38.361Z,10.60
2023-03-20T04:24:07.193Z,10.60
2023-03-20T04:26:34.624Z,10.60
2023-03-20T04:29:03.417Z,10.60
2023-03-20T04:31:31.069Z,10.70
2023-03-20T04:33:58.158Z,10.70
2023-03-20T04:36:25.828Z,10.80
2023-03-20T04:38:55.745Z,10.80
2023-03-20T04:41:24.034Z,10.90
2023-03-20T04:43:51.535Z,10.90
2023-03-20T04:46:19.899Z,10.80
2023-03-20T04:48:47.374Z,10.80
2023-03-20T04:51:14.340Z,10.80
2023-03-20T04:53:41.241Z,10.80
2023-03-20T04:56:09.204Z,10.70
2023-03-20T04:58:36.976Z,10.70
2023-03-20T05:01:04.688Z,10.70
2023-03-20T05:03:33.918Z,10.70
2023-03-20T05:06:01.495Z,10.60
2023-03-20T05:08:28.427Z,10.60
2023-03-20T05:10:56.007Z,10.60
2023-03-20T05:13:23.525Z,10.60
2023-03-20T05:15:50.536Z,10.60
2023-03-20T05:18:18.023Z,10.60
2023-03-20T05:20:46.492Z,10.60
2023-03-20T05:23:13.407Z,10.60
2023-03-20T05:25:40.925Z,10.70
2023-03-20T05:28:08.439Z,10.70
2023-03-20T05:30:35.390Z,10.70
2023-03-20T05:33:02.982Z,10.80
2023-03-20T05:35:30.791Z,10.80
2023-03-20T05:37:59.150Z,10.80
2023-03-20T05:40:26.786Z,10.80
2023-03-20T05:42:53.853Z,10.70
2023-03-20T05:45:20.994Z,10.60
2023-03-20T05:47:48.023Z,10.70
2023-03-20T05:50:15.333Z,10.70
2023-03-20T05:52:42.290Z,10.80
2023-03-20T05:55:10.782Z,10.80
2023-03-20T05:57:37.708Z,10.70
2023-03-20T06:00:06.562Z,10.70
2023-03-20T06:02:33.555Z,10.70
2023-03-20T06:05:00.778Z,10.80
2023-03-20T06:07:27.785Z,10.80
2023-03-20T06:09:55.460Z,10.80
2023-03-20T06:12:24.008Z,10.80
2023-03-20T06:14:50.944Z,10.90
2023-03-20T06:17:18.384Z,10.80
2023-03-20T06:19:45.811Z,10.80
2023-03-20T06:22:12.785Z,10.80
2023-03-20T06:24:40.250Z,10.80
2023-03-20T06:27:07.176Z,10.70
2023-03-20T06:29:35.583Z,10.70
2023-03-20T06:32:04.278Z,10.70
2023-03-20T06:34:31.490Z,10.60
2023-03-20T06:36:58.458Z,10.70
2023-03-20T06:39:25.414Z,10.70
2023-03-20T06:41:52.491Z,10.80
2023-03-20T06:44:19.465Z,10.90
2023-03-20T06:46:47.886Z,11.00
2023-03-20T06:49:14.960Z,11.10
2023-03-20T06:51:41.878Z,11.10
2023-03-20T06:54:09.272Z,11.20
2023-03-20T06:56:36.308Z,11.30
2023-03-20T06:59:03.759Z,11.30
2023-03-20T07:01:31.181Z,11.40
2023-03-20T07:04:01.057Z,11.40
2023-03-20T07:06:28.092Z,11.50
2023-03-20T07:08:55.107Z,11.40
2023-03-20T07:11:22.349Z,11.30
2023-03-20T07:16:33.755Z,11.30
2023-03-20T07:19:02.737Z,11.20
2023-03-20T07:21:30.303Z,11.20
2023-03-20T07:23:58.377Z,11.20
2023-03-20T07:26:25.784Z,11.20
2023-03-20T07:28:53.257Z,11.30
2023-03-20T07:31:23.106Z,11.40
2023-03-20T07:33:50.304Z,11.40
2023-03-20T07:36:19.087Z,11.40
2023-03-20T07:38:46.218Z,11.40
2023-03-20T07:41:13.203Z,11.50
2023-03-20T07:43:40.430Z,11.50
2023-03-20T07:48:54.136Z,11.60
2023-03-20T07:51:22.429Z,11.70
2023-03-20T07:53:49.427Z,11.80
2023-03-20T07:56:16.428Z,11.90
2023-03-20T07:58:43.495Z,11.90
2023-03-20T08:01:10.434Z,12.10
2023-03-20T08:03:39.002Z,12.20
2023-03-20T08:06:09.535Z,12.20
2023-03-20T08:08:37.953Z,12.30
2023-03-20T08:11:05.777Z,12.40
2023-03-20T08:13:32.758Z,12.50
2023-03-20T08:16:01.310Z,12.50
2023-03-20T08:18:28.218Z,12.60
2023-03-20T08:20:55.936Z,12.60
2023-03-20T08:23:22.846Z,12.70
2023-03-20T08:25:52.573Z,12.80
2023-03-20T08:28:20.862Z,12.80
2023-03-20T08:30:48.433Z,12.80
2023-03-20T08:33:17.130Z,13.10
2023-03-20T08:35:44.638Z,13.70
2023-03-20T08:38:13.846Z,14.00
2023-03-20T08:40:41.742Z,14.60
2023-03-20T08:43:10.075Z,14.90
2023-03-20T08:45:37.977Z,15.20
2023-03-20T08:48:05.309Z,15.10
2023-03-20T08:50:33.113Z,15.00
2023-03-20T08:53:01.604Z,14.80
2023-03-20T08:55:28.602Z,14.60
2023-03-20T08:57:57.770Z,14.60
2023-03-20T09:00:27.936Z,14.60
2023-03-20T09:02:54.990Z,14.50
2023-03-20T09:05:22.450Z,14.40
2023-03-20T09:07:49.696Z,14.30
2023-03-20T09:10:17.484Z,14.20
2023-03-20T09:12:44.469Z,14.20
2023-03-20T09:15:12.405Z,14.40
2023-03-20T09:17:40.737Z,14.70
2023-03-20T09:20:09.358Z,15.00
2023-03-20T09:22:36.425Z,15.40
2023-03-20T09:25:03.897Z,15.50
2023-03-20T09:27:30.853Z,15.40
2023-03-20T09:29:57.852Z,15.60
2023-03-20T09:32:24.840Z,15.50
2023-03-20T09:34:53.321Z,15.30
2023-03-20T09:37:20.434Z,15.60
2023-03-20T09:39:47.464Z,15.70
2023-03-20T09:42:32.885Z,15.80
2023-03-20T09:45:09.875Z,15.60
2023-03-20T09:47:46.640Z,15.70
2023-03-20T09:50:25.140Z,15.70
2023-03-20T09:53:00.410Z,15.70
2023-03-20T09:55:35.619Z,15.60
2023-03-20T09:58:12.208Z,15.60
2023-03-20T10:00:43.450Z,15.80
2023-03-20T10:03:19.510Z,16.30
2023-03-20T10:05:55.904Z,16.10
2023-03-20T10:08:28.957Z,15.70
2023-03-20T10:11:11.124Z,15.40
2023-03-20T10:13:59.381Z,15.30
2023-03-20T10:16:42.340Z,15.30
2023-03-20T10:19:22.068Z,15.20
2023-03-20T10:21:57.933Z,15.00
2023-03-20T10:24:29.567Z,15.20
2023-03-20T10:27:02.786Z,15.20
2023-03-20T10:29:41.956Z,15.20
2023-03-20T10:32:18.433Z,15.20
2023-03-20T10:34:58.269Z,15.30
2023-03-20T10:37:42.490Z,15.50
2023-03-20T10:40:27.974Z,15.70
2023-03-20T10:42:59.607Z,15.90
2023-03-20T10:45:35.314Z,15.90
2023-03-20T10:48:14.374Z,15.80
2023-03-20T10:50:47.056Z,15.90
2023-03-20T10:53:27.801Z,15.80
2023-03-20T10:55:58.537Z,16.00
2023-03-20T10:58:29.522Z,16.00
2023-03-20T11:00:57.845Z,16.00
2023-03-20T11:03:28.727Z,16.00
2023-03-20T11:06:09.286Z,15.90
2023-03-20T11:08:42.244Z,15.80
2023-03-20T11:11:10.309Z,15.80
2023-03-20T11:13:41.392Z,15.80
2023-03-20T11:16:18.838Z,15.80
2023-03-20T11:18:46.290Z,15.80
2023-03-20T11:21:21.338Z,16.00
2023-03-20T11:23:50.551Z,16.20
2023-03-20T11:26:21.175Z,16.20
2023-03-20T11:28:52.318Z,15.90
2023-03-20T11:31:26.194Z,15.80
2023-03-20T11:34:11.214Z,15.70
2023-03-20T11:36:41.462Z,15.80
2023-03-20T11:39:15.355Z,15.70
2023-03-20T11:41:50.402Z,15.80
2023-03-20T11:44:28.330Z,15.90
2023-03-20T11:47:00.229Z,16.00
2023-03-20T11:49:28.370Z,16.20
2023-03-20T11:52:00.983Z,16.30
2023-03-20T11:54:30.651Z,16.30
2023-03-20T11:56:59.827Z,16.50
2023-03-20T11:59:32.791Z,16.40
2023-03-20T12:02:01.068Z,16.40
2023-03-20T12:04:30.690Z,16.40
2023-03-20T12:07:04.506Z,16.60
2023-03-20T12:09:41.194Z,16.60
2023-03-20T12:12:17.925Z,16.70
2023-03-20T12:14:54.115Z,16.70
2023-03-20T12:17:38.640Z,16.70
2023-03-20T12:20:23.350Z,16.60
2023-03-20T12:22:58.572Z,16.60
2023-03-20T12:25:30.333Z,16.70
2023-03-20T12:28:05.369Z,16.70
2023-03-20T12:30:50.358Z,16.80
2023-03-20T12:33:30.065Z,16.80
2023-03-20T12:35:59.932Z,16.70
2023-03-20T12:38:30.114Z,16.80
2023-03-20T12:41:10.364Z,16.60
2023-03-20T12:43:59.318Z,16.80
2023-03-20T12:46:32.928Z,16.70
2023-03-20T12:49:10.646Z,16.70
2023-03-20T12:51:53.234Z,16.60
2023-03-20T12:54:36.864Z,16.50
2023-03-20T12:57:19.711Z,16.40
2023-03-20T13:00:03.921Z,16.30
2023-03-20T13:02:42.564Z,16.20
2023-03-20T13:05:26.511Z,15.90
2023-03-20T13:08:13.671Z,15.60
2023-03-20T13:10:53.916Z,15.50
2023-03-20T13:13:33.631Z,15.60
2023-03-20T13:16:13.634Z,15.70
2023-03-20T13:18:52.318Z,15.90
2023-03-20T13:21:29.187Z,16.00
2023-03-20T13:24:15.140Z,16.00
2023-03-20T13:26:50.513Z,16.00
2023-03-20T13:29:28.313Z,16.10
2023-03-20T13:32:08.090Z,16.10
2023-03-20T13:34:55.288Z,16.10
2023-03-20T13:37:28.418Z,16.10
2023-03-20T13:40:06.143Z,16.20
2023-03-20T13:42:38.759Z,16.20
2023-03-20T13:45:22.130Z,16.20
2023-03-20T13:47:51.102Z,16.20
2023-03-20T13:50:35.743Z,16.20
2023-03-20T13:53:14.945Z,16.10
2023-03-20T13:55:49.348Z,16.10
2023-03-20T13:58:49.694Z,16.00
2023-03-20T14:01:26.939Z,16.10
2023-03-20T14:03:54.723Z,16.00
2023-03-20T14:06:51.624Z,15.90
2023-03-20T14:09:32.201Z,15.90
2023-03-20T14:12:06.437Z,15.80
2023-03-20T14:14:42.621Z,15.70
2023-03-20T14:17:19.038Z,15.60
2023-03-20T14:19:46.768Z,15.60
2023-03-20T14:25:17.751Z,15.60
2023-03-20T14:27:56.976Z,15.60
2023-03-20T14:30:41.295Z,15.60
2023-03-20T14:33:27.153Z,15.60
2023-03-20T14:36:20.769Z,15.60
2023-03-20T14:39:00.058Z,15.70
2023-03-20T14:41:37.685Z,15.70
2023-03-20T14:44:22.543Z,15.70
2023-03-20T14:46:55.271Z,15.70
2023-03-20T14:49:47.951Z,15.90
2023-03-20T14:52:33.148Z,15.90
2023-03-20T14:55:35.740Z,15.90
2023-03-20T14:58:05.373Z,15.80
2023-03-20T15:00:44.680Z,15.70
2023-03-20T15:03:15.933Z,15.70
2023-03-20T15:05:45.803Z,15.60
2023-03-20T15:08:23.574Z,15.30
2023-03-20T15:10:54.996Z,15.10
2023-03-20T15:13:24.993Z,15.00
2023-03-20T15:15:55.095Z,14.90
2023-03-20T15:18:25.225Z,14.90
2023-03-20T15:20:55.654Z,14.90
2023-03-20T15:23:22.963Z,14.80
2023-03-20T15:25:51.270Z,14.90
2023-03-20T15:28:22.936Z,14.90
2023-03-20T15:30:53.971Z,14.80
2023-03-20T15:33:28.263Z,14.80
2023-03-20T15:35:56.867Z,14.80
2023-03-20T15:38:29.384Z,14.90
2023-03-20T15:40:56.700Z,14.90
2023-03-20T15:43:26.038Z,14.90
2023-03-20T15:46:02.875Z,14.80
2023-03-20T15:48:34.324Z,14.80
2023-03-20T15:51:05.936Z,14.70
2023-03-20T15:53:38.601Z,14.70
2023-03-20T15:56:18.226Z,14.60
2023-03-20T15:58:49.010Z,14.60
2023-03-20T16:01:19.414Z,14.60
2023-03-20T16:03:46.837Z,14.50
2023-03-20T16:06:22.280Z,14.40
2023-03-20T16:08:58.789Z,14.30
2023-03-20T16:11:33.965Z,14.20
2023-03-20T16:14:01.180Z,14.10
2023-03-20T16:16:30.092Z,14.10
2023-03-20T16:18:59.313Z,14.10
2023-03-20T16:21:31.941Z,14.10
2023-03-20T16:23:59.975Z,14.10
2023-03-20T16:26:28.113Z,13.90
2023-03-20T16:28:58.887Z,13.90
2023-03-20T16:31:29.062Z,13.80
2023-03-20T16:33:59.370Z,13.70
2023-03-20T16:36:31.801Z,13.70
2023-03-20T16:39:07.438Z,13.70
2023-03-20T16:41:36.386Z,13.60
2023-03-20T16:44:08.186Z,13.60
2023-03-20T16:46:35.396Z,13.60
2023-03-20T16:50:00.438Z,13.60
2023-03-20T16:52:31.404Z,13.50
2023-03-20T16:55:01.001Z,13.50
2023-03-20T16:57:34.227Z,13.50
2023-03-20T17:00:08.988Z,13.40
2023-03-20T17:02:41.391Z,13.30
2023-03-20T17:05:13.505Z,13.30
2023-03-20T17:07:42.896Z,13.30
2023-03-20T17:10:20.874Z,13.30
2023-03-20T17:12:50.493Z,13.30
2023-03-20T17:15:19.802Z,13.30
2023-03-20T17:17:47.442Z,13.20
2023-03-20T17:20:22.133Z,13.20
2023-03-20T17:22:51.110Z,13.10
2023-03-20T17:25:18.779Z,13.10
2023-03-20T17:27:46.997Z,13.10
2023-03-20T17:30:19.130Z,13.00
2023-03-20T17:32:46.413Z,13.00
2023-03-20T17:35:14.198Z,12.90
2023-03-20T17:37:41.796Z,13.00
2023-03-20T17:40:17.559Z,13.00
2023-03-20T17:42:44.600Z,13.00
2023-03-20T17:45:14.435Z,13.00
2023-03-20T17:47:43.381Z,12.90
2023-03-20T17:50:20.485Z,12.90
2023-03-20T17:52:47.482Z,12.90
2023-03-20T17:55:16.005Z,12.90
2023-03-20T17:57:43.421Z,12.80
2023-03-20T18:00:18.366Z,12.80
2023-03-20T18:02:45.376Z,12.80
2023-03-20T18:05:12.935Z,12.70
2023-03-20T18:07:40.747Z,12.70
2023-03-20T18:10:20.301Z,12.70
2023-03-20T18:12:47.435Z,12.70
2023-03-20T18:15:14.570Z,12.60
2023-03-20T18:17:41.564Z,12.70
2023-03-20T18:20:23.661Z,12.60
2023-03-20T18:22:50.911Z,12.60
2023-03-20T18:25:19.547Z,12.60
2023-03-20T18:27:46.602Z,12.60
2023-03-20T18:30:17.190Z,12.60
2023-03-20T18:32:44.277Z,12.60
2023-03-20T18:35:12.056Z,12.60
2023-03-20T18:37:39.094Z,12.60
2023-03-20T18:40:15.303Z,12.60
2023-03-20T18:42:44.012Z,12.50
2023-03-20T18:45:12.435Z,12.50
2023-03-20T18:47:39.523Z,12.50
2023-03-20T18:50:14.268Z,12.40
2023-03-20T18:52:41.299Z,12.20
2023-03-20T18:55:09.638Z,12.20
2023-03-20T18:57:43.019Z,12.20
2023-03-20T19:00:23.396Z,12.30
2023-03-20T19:02:52.334Z,12.40
2023-03-20T19:05:20.317Z,12.50
2023-03-20T19:07:48.028Z,12.50
2023-03-20T19:10:29.300Z,12.50
2023-03-20T19:12:57.572Z,12.50
2023-03-20T19:15:28.889Z,12.40
2023-03-20T19:17:56.714Z,12.50
2023-03-20T19:20:36.552Z,12.50
2023-03-20T19:23:05.809Z,12.50
2023-03-20T19:25:34.354Z,12.50
2023-03-20T19:28:02.216Z,12.50
2023-03-20T19:30:34.167Z,12.40
2023-03-20T19:33:01.690Z,12.40
2023-03-20T19:35:54.526Z,12.40
2023-03-20T19:38:20.731Z,12.40
2023-03-20T19:40:49.482Z,12.40
2023-03-20T19:43:16.632Z,12.40
2023-03-20T19:45:45.936Z,12.40
2023-03-20T19:48:15.810Z,12.30
2023-03-20T19:50:46.821Z,12.30
2023-03-20T19:53:18.677Z,12.40
2023-03-20T19:55:46.405Z,12.40
2023-03-20T19:58:13.842Z,12.40
2023-03-20T20:01:12.275Z,12.40
2023-03-20T20:03:31.216Z,12.30
2023-03-20T20:05:59.816Z,12.20
2023-03-20T20:08:42.608Z,12.20
2023-03-20T20:11:14.352Z,12.20
2023-03-20T20:14:03.783Z,12.10
2023-03-20T20:16:29.174Z,12.20
2023-03-20T20:18:57.942Z,12.10
2023-03-20T20:24:12.685Z,12.10
2023-03-20T20:26:49.426Z,12.10
2023-03-20T20:29:21.223Z,12.00
2023-03-20T20:31:48.389Z,12.10
2023-03-20T20:39:51.435Z,12.00
2023-03-20T20:42:18.895Z,11.90
2023-03-20T20:44:46.325Z,11.80
2023-03-20T20:47:13.704Z,11.80
2023-03-20T20:49:42.466Z,11.70
2023-03-20T20:52:10.431Z,11.70
2023-03-20T20:54:37.811Z,11.80
2023-03-20T20:57:04.981Z,11.80
2023-03-20T20:59:31.998Z,11.70
2023-03-20T21:01:58.990Z,11.70
2023-03-20T21:04:26.504Z,11.60
2023-03-20T21:07:11.621Z,11.60
2023-03-20T21:09:39.497Z,11.60
2023-03-20T21:12:08.455Z,11.70
2023-03-20T21:14:36.101Z,11.80
2023-03-20T21:17:04.499Z,11.70
2023-03-20T21:19:35.444Z,11.60
2023-03-20T21:22:06.516Z,11.60
2023-03-20T21:24:34.901Z,11.50
2023-03-20T21:27:04.651Z,11.50
2023-03-20T21:29:31.825Z,11.50
2023-03-20T21:31:58.819Z,11.50
2023-03-20T21:34:26.392Z,11.50
2023-03-20T21:36:53.350Z,11.40
2023-03-20T21:39:21.654Z,11.30
2023-03-20T21:41:48.878Z,11.30
2023-03-20T21:44:28.550Z,11.30
2023-03-20T21:53:17.855Z,11.50
2023-03-20T21:56:29.316Z,11.50
2023-03-20T22:07:26.530Z,11.10
2023-03-20T22:13:13.903Z,11.10
2023-03-20T22:18:19.125Z,11.10
2023-03-20T22:21:29.980Z,11.10
2023-03-20T22:24:10.456Z,11.10
2023-03-20T22:27:03.352Z,11.10
2023-03-20T22:38:06.102Z,11.00
2023-03-20T22:43:57.061Z,10.90
2023-03-20T22:46:05.518Z,11.00
2023-03-20T22:48:35.802Z,10.90
2023-03-20T22:51:02.861Z,10.90
2023-03-20T22:53:32.548Z,10.80
2023-03-20T22:56:00.248Z,10.90
2023-03-20T22:58:27.552Z,10.90
2023-03-20T23:00:57.025Z,10.90
2023-03-20T23:03:42.000Z,10.80
2023-03-20T23:06:16.653Z,10.50
2023-03-20T23:08:50.805Z,10.50
2023-03-20T23:11:21.414Z,10.60
2023-03-20T23:13:48.485Z,10.70
2023-03-20T23:16:17.503Z,10.70
2023-03-20T23:18:44.721Z,10.70
2023-03-20T23:21:12.360Z,10.70
2023-03-20T23:23:40.240Z,10.60
2023-03-20T23:26:09.567Z,10.70
2023-03-20T23:28:38.788Z,10.70
2023-03-20T23:31:11.205Z,10.60
2023-03-20T23:33:40.246Z,10.70
2023-03-20T23:36:21.407Z,10.70
2023-03-20T23:38:55.892Z,10.70
2023-03-20T23:41:43.435Z,10.60
2023-03-20T23:44:10.324Z,10.60
2023-03-20T23:46:37.332Z,10.60
2023-03-20T23:49:06.634Z,10.60
2023-03-20T23:51:34.384Z,10.50
2023-03-20T23:54:01.373Z,10.40
2023-03-20T23:56:29.952Z,10.40
2023-03-20T23:59:03.229Z,10.40
